sensor_id;sensor_type;location;lat;lon;timestamp;temperature;humidity
47022;DHT22;32779;52.264;6.154;2022-11-15T00:02:07;7.10;99.90
47022;DHT22;32779;52.264;6.154;2022-11-15T00:04:33;7.10;99.90
47022;DHT22;32779;52.264;6.154;2022-11-15T00:06:59;7.20;99.90
47022;DHT22;32779;52.264;6.154;2022-11-15T00:09:24;7.20;99.90
47022;DHT22;32779;52.264;6.154;2022-11-15T00:11:51;7.20;99.90
47022;DHT22;32779;52.264;6.154;2022-11-15T00:14:17;7.30;99.90
47022;DHT22;32779;52.264;6.154;2022-11-15T00:16:43;7.30;99.90
47022;DHT22;32779;52.264;6.154;2022-11-15T00:19:09;7.20;99.90
47022;DHT22;32779;52.264;6.154;2022-11-15T00:21:34;7.30;99.90
47022;DHT22;32779;52.264;6.154;2022-11-15T00:24:00;7.30;99.90
47022;DHT22;32779;52.264;6.154;2022-11-15T00:26:25;7.40;99.90
47022;DHT22;32779;52.264;6.154;2022-11-15T00:28:54;7.40;99.90
47022;DHT22;32779;52.264;6.154;2022-11-15T00:31:20;7.40;99.90
47022;DHT22;32779;52.264;6.154;2022-11-15T00:33:45;7.40;99.90
47022;DHT22;32779;52.264;6.154;2022-11-15T00:36:11;7.40;99.90
47022;DHT22;32779;52.264;6.154;2022-11-15T00:38:38;7.50;99.90
47022;DHT22;32779;52.264;6.154;2022-11-15T00:41:06;7.50;99.90
47022;DHT22;32779;52.264;6.154;2022-11-15T00:43:32;7.50;99.90
47022;DHT22;32779;52.264;6.154;2022-11-15T00:45:58;7.50;99.90
47022;DHT22;32779;52.264;6.154;2022-11-15T00:48:24;7.60;99.90
47022;DHT22;32779;52.264;6.154;2022-11-15T00:50:50;7.60;99.90
47022;DHT22;32779;52.264;6.154;2022-11-15T00:53:16;7.60;99.90
47022;DHT22;32779;52.264;6.154;2022-11-15T00:55:42;7.60;99.90
47022;DHT22;32779;52.264;6.154;2022-11-15T00:58:08;7.60;99.90
47022;DHT22;32779;52.264;6.154;2022-11-15T01:00:34;7.60;99.90
47022;DHT22;32779;52.264;6.154;2022-11-15T01:03:00;7.60;99.90
47022;DHT22;32779;52.264;6.154;2022-11-15T01:05:27;7.70;99.90
47022;DHT22;32779;52.264;6.154;2022-11-15T01:07:54;7.70;99.90
47022;DHT22;32779;52.264;6.154;2022-11-15T01:10:20;7.70;99.90
47022;DHT22;32779;52.264;6.154;2022-11-15T01:12:46;7.70;99.90
47022;DHT22;32779;52.264;6.154;2022-11-15T01:15:11;7.70;99.90
47022;DHT22;32779;52.264;6.154;2022-11-15T01:17:37;7.80;99.90
47022;DHT22;32779;52.264;6.154;2022-11-15T01:20:03;7.80;99.90
47022;DHT22;32779;52.264;6.154;2022-11-15T01:22:28;7.80;99.90
47022;DHT22;32779;52.264;6.154;2022-11-15T01:24:54;7.80;99.90
47022;DHT22;32779;52.264;6.154;2022-11-15T01:27:19;7.80;99.90
47022;DHT22;32779;52.264;6.154;2022-11-15T01:29:45;7.90;99.90
47022;DHT22;32779;52.264;6.154;2022-11-15T01:32:10;7.90;99.90
47022;DHT22;32779;52.264;6.154;2022-11-15T01:34:36;8.00;99.90
47022;DHT22;32779;52.264;6.154;2022-11-15T01:37:02;7.90;99.90
47022;DHT22;32779;52.264;6.154;2022-11-15T01:39:27;7.90;99.90
47022;DHT22;32779;52.264;6.154;2022-11-15T01:41:53;7.90;99.90
47022;DHT22;32779;52.264;6.154;2022-11-15T01:47:02;7.90;99.90
47022;DHT22;32779;52.264;6.154;2022-11-15T01:49:31;8.00;99.90
47022;DHT22;32779;52.264;6.154;2022-11-15T01:51:58;8.00;99.90
47022;DHT22;32779;52.264;6.154;2022-11-15T01:54:23;8.10;99.90
47022;DHT22;32779;52.264;6.154;2022-11-15T01:56:55;8.10;99.90
47022;DHT22;32779;52.264;6.154;2022-11-15T01:59:21;8.10;99.90
47022;DHT22;32779;52.264;6.154;2022-11-15T02:01:48;8.10;99.90
47022;DHT22;32779;52.264;6.154;2022-11-15T02:04:17;8.10;99.90
47022;DHT22;32779;52.264;6.154;2022-11-15T02:06:44;8.10;99.90
47022;DHT22;32779;52.264;6.154;2022-11-15T02:09:11;8.20;99.90
47022;DHT22;32779;52.264;6.154;2022-11-15T02:11:37;8.20;99.90
47022;DHT22;32779;52.264;6.154;2022-11-15T02:14:03;8.20;99.90
47022;DHT22;32779;52.264;6.154;2022-11-15T02:16:51;8.30;99.90
47022;DHT22;32779;52.264;6.154;2022-11-15T02:27:49;8.20;99.90
47022;DHT22;32779;52.264;6.154;2022-11-15T02:30:25;8.20;99.90
47022;DHT22;32779;52.264;6.154;2022-11-15T02:33:11;8.20;99.90
47022;DHT22;32779;52.264;6.154;2022-11-15T02:36:14;8.20;99.90
47022;DHT22;32779;52.264;6.154;2022-11-15T02:38:50;8.20;99.90
47022;DHT22;32779;52.264;6.154;2022-11-15T02:41:25;8.30;99.90
47022;DHT22;32779;52.264;6.154;2022-11-15T02:43:56;8.30;99.90
47022;DHT22;32779;52.264;6.154;2022-11-15T02:46:34;8.30;99.90
47022;DHT22;32779;52.264;6.154;2022-11-15T02:49:20;8.30;99.90
47022;DHT22;32779;52.264;6.154;2022-11-15T02:51:47;8.30;99.90
47022;DHT22;32779;52.264;6.154;2022-11-15T02:54:26;8.30;99.90
47022;DHT22;32779;52.264;6.154;2022-11-15T02:56:54;8.30;99.90
47022;DHT22;32779;52.264;6.154;2022-11-15T03:13:39;8.40;99.90
47022;DHT22;32779;52.264;6.154;2022-11-15T03:16:20;8.40;99.90
47022;DHT22;32779;52.264;6.154;2022-11-15T03:21:30;8.50;99.90
47022;DHT22;32779;52.264;6.154;2022-11-15T03:23:58;8.60;99.90
47022;DHT22;32779;52.264;6.154;2022-11-15T03:26:26;8.60;99.90
47022;DHT22;32779;52.264;6.154;2022-11-15T03:29:01;8.60;99.90
47022;DHT22;32779;52.264;6.154;2022-11-15T03:31:33;8.70;99.90
47022;DHT22;32779;52.264;6.154;2022-11-15T03:34:18;8.70;99.90
47022;DHT22;32779;52.264;6.154;2022-11-15T03:36:45;8.80;99.90
47022;DHT22;32779;52.264;6.154;2022-11-15T03:39:10;8.80;99.90
47022;DHT22;32779;52.264;6.154;2022-11-15T03:41:46;8.80;99.90
47022;DHT22;32779;52.264;6.154;2022-11-15T03:44:20;8.80;99.90
47022;DHT22;32779;52.264;6.154;2022-11-15T03:47:11;8.80;99.90
47022;DHT22;32779;52.264;6.154;2022-11-15T03:49:40;8.90;99.90
47022;DHT22;32779;52.264;6.154;2022-11-15T03:52:10;8.90;99.90
47022;DHT22;32779;52.264;6.154;2022-11-15T03:54:36;8.90;99.90
47022;DHT22;32779;52.264;6.154;2022-11-15T03:57:02;9.00;99.90
47022;DHT22;32779;52.264;6.154;2022-11-15T03:59:27;9.00;99.90
47022;DHT22;32779;52.264;6.154;2022-11-15T04:01:53;9.00;99.90
47022;DHT22;32779;52.264;6.154;2022-11-15T04:04:18;9.00;99.90
47022;DHT22;32779;52.264;6.154;2022-11-15T04:06:44;9.00;99.90
47022;DHT22;32779;52.264;6.154;2022-11-15T04:09:10;9.00;99.90
47022;DHT22;32779;52.264;6.154;2022-11-15T04:11:35;9.10;99.90
47022;DHT22;32779;52.264;6.154;2022-11-15T04:14:01;9.10;99.90
47022;DHT22;32779;52.264;6.154;2022-11-15T04:16:26;9.10;99.90
47022;DHT22;32779;52.264;6.154;2022-11-15T04:18:52;9.10;99.90
47022;DHT22;32779;52.264;6.154;2022-11-15T04:21:37;9.20;99.90
47022;DHT22;32779;52.264;6.154;2022-11-15T04:24:22;9.20;99.90
47022;DHT22;32779;52.264;6.154;2022-11-15T04:26:48;9.20;99.90
47022;DHT22;32779;52.264;6.154;2022-11-15T04:29:13;9.20;99.90
47022;DHT22;32779;52.264;6.154;2022-11-15T04:31:58;9.30;99.90
47022;DHT22;32779;52.264;6.154;2022-11-15T04:34:23;9.30;99.90
47022;DHT22;32779;52.264;6.154;2022-11-15T04:36:49;9.30;99.90
47022;DHT22;32779;52.264;6.154;2022-11-15T04:39:33;9.30;99.90
47022;DHT22;32779;52.264;6.154;2022-11-15T04:41:59;9.40;99.90
47022;DHT22;32779;52.264;6.154;2022-11-15T04:44:24;9.40;99.90
47022;DHT22;32779;52.264;6.154;2022-11-15T04:46:50;9.40;99.90
47022;DHT22;32779;52.264;6.154;2022-11-15T04:49:15;9.40;99.90
47022;DHT22;32779;52.264;6.154;2022-11-15T04:51:41;9.40;99.90
47022;DHT22;32779;52.264;6.154;2022-11-15T04:54:06;9.50;99.90
47022;DHT22;32779;52.264;6.154;2022-11-15T04:56:32;9.50;99.90
47022;DHT22;32779;52.264;6.154;2022-11-15T04:58:57;9.50;99.90
47022;DHT22;32779;52.264;6.154;2022-11-15T05:01:23;9.60;99.90
47022;DHT22;32779;52.264;6.154;2022-11-15T05:03:48;9.60;99.90
47022;DHT22;32779;52.264;6.154;2022-11-15T05:06:32;9.60;99.90
47022;DHT22;32779;52.264;6.154;2022-11-15T05:08:58;9.60;99.90
47022;DHT22;32779;52.264;6.154;2022-11-15T05:11:23;9.60;99.90
47022;DHT22;32779;52.264;6.154;2022-11-15T05:13:49;9.60;99.90
47022;DHT22;32779;52.264;6.154;2022-11-15T05:16:15;9.60;99.90
47022;DHT22;32779;52.264;6.154;2022-11-15T05:18:41;9.70;99.90
47022;DHT22;32779;52.264;6.154;2022-11-15T05:21:14;9.70;99.90
47022;DHT22;32779;52.264;6.154;2022-11-15T05:23:40;9.60;99.90
47022;DHT22;32779;52.264;6.154;2022-11-15T05:26:10;9.60;99.90
47022;DHT22;32779;52.264;6.154;2022-11-15T05:28:36;9.70;99.90
47022;DHT22;32779;52.264;6.154;2022-11-15T05:31:07;9.70;99.90
47022;DHT22;32779;52.264;6.154;2022-11-15T05:33:34;9.70;99.90
47022;DHT22;32779;52.264;6.154;2022-11-15T05:36:05;9.70;99.90
47022;DHT22;32779;52.264;6.154;2022-11-15T05:38:33;9.70;99.90
47022;DHT22;32779;52.264;6.154;2022-11-15T05:41:00;9.70;99.90
47022;DHT22;32779;52.264;6.154;2022-11-15T05:43:27;9.80;99.90
47022;DHT22;32779;52.264;6.154;2022-11-15T05:45:53;9.80;99.90
47022;DHT22;32779;52.264;6.154;2022-11-15T05:48:19;9.80;99.90
47022;DHT22;32779;52.264;6.154;2022-11-15T05:50:46;9.80;99.90
47022;DHT22;32779;52.264;6.154;2022-11-15T05:53:16;9.80;99.90
47022;DHT22;32779;52.264;6.154;2022-11-15T05:55:43;9.80;99.90
47022;DHT22;32779;52.264;6.154;2022-11-15T05:58:08;9.80;99.90
47022;DHT22;32779;52.264;6.154;2022-11-15T06:00:34;9.90;99.90
47022;DHT22;32779;52.264;6.154;2022-11-15T06:03:00;9.90;99.90
47022;DHT22;32779;52.264;6.154;2022-11-15T06:05:25;9.90;99.90
47022;DHT22;32779;52.264;6.154;2022-11-15T06:07:51;9.90;99.90
47022;DHT22;32779;52.264;6.154;2022-11-15T06:10:17;9.90;99.90
47022;DHT22;32779;52.264;6.154;2022-11-15T06:12:42;9.90;99.90
47022;DHT22;32779;52.264;6.154;2022-11-15T06:15:08;10.00;99.90
47022;DHT22;32779;52.264;6.154;2022-11-15T06:17:34;10.00;99.90
47022;DHT22;32779;52.264;6.154;2022-11-15T06:19:59;10.00;99.90
47022;DHT22;32779;52.264;6.154;2022-11-15T06:22:25;10.00;99.90
47022;DHT22;32779;52.264;6.154;2022-11-15T06:24:50;10.10;99.90
47022;DHT22;32779;52.264;6.154;2022-11-15T06:27:16;10.10;99.90
47022;DHT22;32779;52.264;6.154;2022-11-15T06:29:41;10.10;99.90
47022;DHT22;32779;52.264;6.154;2022-11-15T06:32:07;10.10;99.90
47022;DHT22;32779;52.264;6.154;2022-11-15T06:34:32;10.10;99.90
47022;DHT22;32779;52.264;6.154;2022-11-15T06:37:02;10.20;99.90
47022;DHT22;32779;52.264;6.154;2022-11-15T06:39:27;10.20;99.90
47022;DHT22;32779;52.264;6.154;2022-11-15T06:41:53;10.20;99.90
47022;DHT22;32779;52.264;6.154;2022-11-15T06:44:19;10.20;99.90
47022;DHT22;32779;52.264;6.154;2022-11-15T06:46:44;10.20;99.90
47022;DHT22;32779;52.264;6.154;2022-11-15T06:49:10;10.20;99.90
47022;DHT22;32779;52.264;6.154;2022-11-15T06:51:35;10.20;99.90
47022;DHT22;32779;52.264;6.154;2022-11-15T06:54:01;10.30;99.90
47022;DHT22;32779;52.264;6.154;2022-11-15T06:56:26;10.30;99.90
47022;DHT22;32779;52.264;6.154;2022-11-15T06:58:52;10.30;99.90
47022;DHT22;32779;52.264;6.154;2022-11-15T07:01:17;10.30;99.90
47022;DHT22;32779;52.264;6.154;2022-11-15T07:03:43;10.30;99.90
47022;DHT22;32779;52.264;6.154;2022-11-15T07:06:09;10.30;99.90
47022;DHT22;32779;52.264;6.154;2022-11-15T07:08:35;10.30;99.90
47022;DHT22;32779;52.264;6.154;2022-11-15T07:11:03;10.40;99.90
47022;DHT22;32779;52.264;6.154;2022-11-15T07:13:31;10.40;99.90
47022;DHT22;32779;52.264;6.154;2022-11-15T07:16:07;10.40;99.90
47022;DHT22;32779;52.264;6.154;2022-11-15T07:18:37;10.40;99.90
47022;DHT22;32779;52.264;6.154;2022-11-15T07:21:05;10.40;99.90
47022;DHT22;32779;52.264;6.154;2022-11-15T07:23:31;10.50;99.90
47022;DHT22;32779;52.264;6.154;2022-11-15T07:25:57;10.50;99.90
47022;DHT22;32779;52.264;6.154;2022-11-15T07:28:24;10.50;99.90
47022;DHT22;32779;52.264;6.154;2022-11-15T07:30:50;10.50;99.90
47022;DHT22;32779;52.264;6.154;2022-11-15T07:33:15;10.50;99.90
47022;DHT22;32779;52.264;6.154;2022-11-15T07:35:41;10.60;99.90
47022;DHT22;32779;52.264;6.154;2022-11-15T07:38:08;10.50;99.90
47022;DHT22;32779;52.264;6.154;2022-11-15T07:40:34;10.60;99.90
47022;DHT22;32779;52.264;6.154;2022-11-15T07:43:01;10.50;99.90
47022;DHT22;32779;52.264;6.154;2022-11-15T07:45:27;10.60;99.90
47022;DHT22;32779;52.264;6.154;2022-11-15T07:47:52;10.60;99.90
47022;DHT22;32779;52.264;6.154;2022-11-15T07:50:18;10.60;99.90
47022;DHT22;32779;52.264;6.154;2022-11-15T07:52:44;10.60;99.90
47022;DHT22;32779;52.264;6.154;2022-11-15T07:55:10;10.60;99.90
47022;DHT22;32779;52.264;6.154;2022-11-15T07:57:36;10.70;99.90
47022;DHT22;32779;52.264;6.154;2022-11-15T08:00:04;10.70;99.90
47022;DHT22;32779;52.264;6.154;2022-11-15T08:02:29;10.70;99.90
47022;DHT22;32779;52.264;6.154;2022-11-15T08:04:55;10.70;99.90
47022;DHT22;32779;52.264;6.154;2022-11-15T08:07:20;10.70;99.90
47022;DHT22;32779;52.264;6.154;2022-11-15T08:09:46;10.70;99.90
47022;DHT22;32779;52.264;6.154;2022-11-15T08:12:12;10.60;99.90
47022;DHT22;32779;52.264;6.154;2022-11-15T08:14:37;10.60;99.90
47022;DHT22;32779;52.264;6.154;2022-11-15T08:17:03;10.60;99.90
47022;DHT22;32779;52.264;6.154;2022-11-15T08:19:29;10.60;99.90
47022;DHT22;32779;52.264;6.154;2022-11-15T08:21:54;10.60;99.90
47022;DHT22;32779;52.264;6.154;2022-11-15T08:24:20;10.60;99.90
47022;DHT22;32779;52.264;6.154;2022-11-15T08:26:45;10.70;99.90
47022;DHT22;32779;52.264;6.154;2022-11-15T08:29:11;10.60;99.90
47022;DHT22;32779;52.264;6.154;2022-11-15T08:31:37;10.60;99.90
47022;DHT22;32779;52.264;6.154;2022-11-15T08:34:04;10.70;99.90
47022;DHT22;32779;52.264;6.154;2022-11-15T08:36:30;10.70;99.90
47022;DHT22;32779;52.264;6.154;2022-11-15T08:38:55;10.70;99.90
47022;DHT22;32779;52.264;6.154;2022-11-15T08:41:31;10.70;99.90
47022;DHT22;32779;52.264;6.154;2022-11-15T08:43:56;10.70;99.90
47022;DHT22;32779;52.264;6.154;2022-11-15T08:46:22;10.80;99.90
47022;DHT22;32779;52.264;6.154;2022-11-15T08:48:48;10.80;99.90
47022;DHT22;32779;52.264;6.154;2022-11-15T08:51:13;10.80;99.90
47022;DHT22;32779;52.264;6.154;2022-11-15T08:53:39;10.90;99.90
47022;DHT22;32779;52.264;6.154;2022-11-15T08:56:10;10.90;99.90
47022;DHT22;32779;52.264;6.154;2022-11-15T08:58:36;10.90;99.90
47022;DHT22;32779;52.264;6.154;2022-11-15T09:01:02;11.00;99.90
47022;DHT22;32779;52.264;6.154;2022-11-15T09:03:27;11.00;99.90
47022;DHT22;32779;52.264;6.154;2022-11-15T09:05:58;11.00;99.90
47022;DHT22;32779;52.264;6.154;2022-11-15T09:08:33;11.00;99.90
47022;DHT22;32779;52.264;6.154;2022-11-15T09:11:03;11.00;99.90
47022;DHT22;32779;52.264;6.154;2022-11-15T09:13:29;11.10;99.90
47022;DHT22;32779;52.264;6.154;2022-11-15T09:15:57;11.10;99.90
47022;DHT22;32779;52.264;6.154;2022-11-15T09:18:24;11.10;99.90
47022;DHT22;32779;52.264;6.154;2022-11-15T09:20:49;11.10;99.90
47022;DHT22;32779;52.264;6.154;2022-11-15T09:23:15;11.10;99.90
47022;DHT22;32779;52.264;6.154;2022-11-15T09:25:40;11.10;99.90
47022;DHT22;32779;52.264;6.154;2022-11-15T09:28:07;11.10;99.90
47022;DHT22;32779;52.264;6.154;2022-11-15T09:30:33;11.20;99.90
47022;DHT22;32779;52.264;6.154;2022-11-15T09:33:05;11.20;99.90
47022;DHT22;32779;52.264;6.154;2022-11-15T09:35:31;11.20;99.90
47022;DHT22;32779;52.264;6.154;2022-11-15T09:37:57;11.20;99.90
47022;DHT22;32779;52.264;6.154;2022-11-15T09:40:24;11.20;99.90
47022;DHT22;32779;52.264;6.154;2022-11-15T09:48:22;11.40;99.90
47022;DHT22;32779;52.264;6.154;2022-11-15T09:50:51;11.40;99.90
47022;DHT22;32779;52.264;6.154;2022-11-15T09:53:24;11.40;99.90
47022;DHT22;32779;52.264;6.154;2022-11-15T09:56:02;11.50;99.90
47022;DHT22;32779;52.264;6.154;2022-11-15T10:02:20;11.50;99.90
47022;DHT22;32779;52.264;6.154;2022-11-15T10:04:49;11.70;99.90
47022;DHT22;32779;52.264;6.154;2022-11-15T10:10:36;11.60;99.90
47022;DHT22;32779;52.264;6.154;2022-11-15T10:13:06;11.60;99.90
47022;DHT22;32779;52.264;6.154;2022-11-15T10:15:33;11.60;99.90
47022;DHT22;32779;52.264;6.154;2022-11-15T10:18:16;11.60;99.90
47022;DHT22;32779;52.264;6.154;2022-11-15T10:20:49;11.60;99.90
47022;DHT22;32779;52.264;6.154;2022-11-15T10:23:21;11.60;99.90
47022;DHT22;32779;52.264;6.154;2022-11-15T10:25:47;11.60;99.90
47022;DHT22;32779;52.264;6.154;2022-11-15T10:28:25;11.60;99.90
47022;DHT22;32779;52.264;6.154;2022-11-15T10:30:54;11.70;99.90
47022;DHT22;32779;52.264;6.154;2022-11-15T10:33:29;11.70;99.90
47022;DHT22;32779;52.264;6.154;2022-11-15T10:36:15;11.70;99.90
47022;DHT22;32779;52.264;6.154;2022-11-15T10:41:30;11.80;99.90
47022;DHT22;32779;52.264;6.154;2022-11-15T10:44:19;11.90;99.90
47022;DHT22;32779;52.264;6.154;2022-11-15T10:47:20;11.90;99.90
47022;DHT22;32779;52.264;6.154;2022-11-15T10:49:33;11.90;99.90
47022;DHT22;32779;52.264;6.154;2022-11-15T10:52:04;12.00;99.90
47022;DHT22;32779;52.264;6.154;2022-11-15T10:57:18;12.10;99.90
47022;DHT22;32779;52.264;6.154;2022-11-15T10:59:53;12.10;99.90
47022;DHT22;32779;52.264;6.154;2022-11-15T11:02:39;12.10;99.90
47022;DHT22;32779;52.264;6.154;2022-11-15T11:08:04;12.00;99.90
47022;DHT22;32779;52.264;6.154;2022-11-15T11:10:30;12.00;99.90
47022;DHT22;32779;52.264;6.154;2022-11-15T11:13:20;12.00;99.90
47022;DHT22;32779;52.264;6.154;2022-11-15T11:15:47;12.00;99.90
47022;DHT22;32779;52.264;6.154;2022-11-15T11:18:36;11.90;99.90
47022;DHT22;32779;52.264;6.154;2022-11-15T11:21:08;11.90;99.90
47022;DHT22;32779;52.264;6.154;2022-11-15T11:29:24;11.90;99.90
47022;DHT22;32779;52.264;6.154;2022-11-15T11:42:55;12.00;99.90
47022;DHT22;32779;52.264;6.154;2022-11-15T11:45:51;11.90;99.90
47022;DHT22;32779;52.264;6.154;2022-11-15T11:48:44;11.90;99.90
47022;DHT22;32779;52.264;6.154;2022-11-15T11:51:34;11.90;99.90
47022;DHT22;32779;52.264;6.154;2022-11-15T11:56:48;11.90;99.90
47022;DHT22;32779;52.264;6.154;2022-11-15T11:59:37;11.90;99.90
47022;DHT22;32779;52.264;6.154;2022-11-15T12:02:26;12.00;99.90
47022;DHT22;32779;52.264;6.154;2022-11-15T12:05:02;12.00;99.90
47022;DHT22;32779;52.264;6.154;2022-11-15T12:07:32;12.00;99.90
47022;DHT22;32779;52.264;6.154;2022-11-15T12:10:03;12.00;99.90
47022;DHT22;32779;52.264;6.154;2022-11-15T12:12:48;12.00;99.90
47022;DHT22;32779;52.264;6.154;2022-11-15T12:15:38;11.90;99.90
47022;DHT22;32779;52.264;6.154;2022-11-15T12:18:04;11.90;99.90
47022;DHT22;32779;52.264;6.154;2022-11-15T12:20:34;12.00;99.90
47022;DHT22;32779;52.264;6.154;2022-11-15T12:23:17;12.00;99.90
47022;DHT22;32779;52.264;6.154;2022-11-15T12:25:46;12.00;99.90
47022;DHT22;32779;52.264;6.154;2022-11-15T12:28:27;12.00;99.90
47022;DHT22;32779;52.264;6.154;2022-11-15T12:31:17;12.00;99.90
47022;DHT22;32779;52.264;6.154;2022-11-15T12:33:46;12.00;99.90
47022;DHT22;32779;52.264;6.154;2022-11-15T12:36:40;12.00;99.90
47022;DHT22;32779;52.264;6.154;2022-11-15T12:39:07;12.10;99.90
47022;DHT22;32779;52.264;6.154;2022-11-15T12:41:39;12.10;99.90
47022;DHT22;32779;52.264;6.154;2022-11-15T12:44:11;12.10;99.90
47022;DHT22;32779;52.264;6.154;2022-11-15T12:52:04;12.10;99.90
47022;DHT22;32779;52.264;6.154;2022-11-15T12:54:51;12.10;99.90
47022;DHT22;32779;52.264;6.154;2022-11-15T13:02:44;11.90;99.90
47022;DHT22;32779;52.264;6.154;2022-11-15T13:17:43;11.90;99.90
47022;DHT22;32779;52.264;6.154;2022-11-15T13:33:52;12.00;99.90
47022;DHT22;32779;52.264;6.154;2022-11-15T13:36:27;12.00;99.90
47022;DHT22;32779;52.264;6.154;2022-11-15T13:39:11;12.00;99.90
47022;DHT22;32779;52.264;6.154;2022-11-15T13:41:49;12.00;99.90
47022;DHT22;32779;52.264;6.154;2022-11-15T13:44:24;12.00;99.90
47022;DHT22;32779;52.264;6.154;2022-11-15T13:47:13;12.00;99.90
47022;DHT22;32779;52.264;6.154;2022-11-15T13:49:39;12.00;99.90
47022;DHT22;32779;52.264;6.154;2022-11-15T13:52:10;12.00;99.90
47022;DHT22;32779;52.264;6.154;2022-11-15T13:57:28;12.00;99.90
47022;DHT22;32779;52.264;6.154;2022-11-15T13:59:58;11.90;99.90
47022;DHT22;32779;52.264;6.154;2022-11-15T14:02:30;11.90;99.90
47022;DHT22;32779;52.264;6.154;2022-11-15T14:05:20;11.90;99.90
47022;DHT22;32779;52.264;6.154;2022-11-15T14:07:58;11.90;99.90
47022;DHT22;32779;52.264;6.154;2022-11-15T14:10:37;11.90;99.90
47022;DHT22;32779;52.264;6.154;2022-11-15T14:13:09;11.80;99.90
47022;DHT22;32779;52.264;6.154;2022-11-15T14:15:37;11.80;99.90
47022;DHT22;32779;52.264;6.154;2022-11-15T14:18:04;11.70;99.90
47022;DHT22;32779;52.264;6.154;2022-11-15T14:20:35;11.80;99.90
47022;DHT22;32779;52.264;6.154;2022-11-15T14:23:19;11.80;99.90
47022;DHT22;32779;52.264;6.154;2022-11-15T14:25:54;11.80;99.90
47022;DHT22;32779;52.264;6.154;2022-11-15T14:30:49;11.90;99.90
47022;DHT22;32779;52.264;6.154;2022-11-15T14:33:32;11.90;99.90
47022;DHT22;32779;52.264;6.154;2022-11-15T14:36:15;11.90;99.90
47022;DHT22;32779;52.264;6.154;2022-11-15T14:38:42;11.90;99.90
47022;DHT22;32779;52.264;6.154;2022-11-15T14:41:17;12.00;99.90
47022;DHT22;32779;52.264;6.154;2022-11-15T14:43:43;12.00;99.90
47022;DHT22;32779;52.264;6.154;2022-11-15T14:46:08;11.90;99.90
47022;DHT22;32779;52.264;6.154;2022-11-15T14:48:34;11.90;99.90
47022;DHT22;32779;52.264;6.154;2022-11-15T14:51:00;11.90;99.90
47022;DHT22;32779;52.264;6.154;2022-11-15T14:53:25;11.80;99.90
47022;DHT22;32779;52.264;6.154;2022-11-15T14:55:51;11.80;99.90
47022;DHT22;32779;52.264;6.154;2022-11-15T14:58:16;11.80;99.90
47022;DHT22;32779;52.264;6.154;2022-11-15T15:00:42;11.80;99.90
47022;DHT22;32779;52.264;6.154;2022-11-15T15:03:08;11.90;99.90
47022;DHT22;32779;52.264;6.154;2022-11-15T15:05:36;11.80;99.90
47022;DHT22;32779;52.264;6.154;2022-11-15T15:08:03;11.80;99.90
47022;DHT22;32779;52.264;6.154;2022-11-15T15:10:33;11.80;99.90
47022;DHT22;32779;52.264;6.154;2022-11-15T15:12:59;11.70;99.90
47022;DHT22;32779;52.264;6.154;2022-11-15T15:15:31;11.70;99.90
47022;DHT22;32779;52.264;6.154;2022-11-15T15:17:57;11.70;99.90
47022;DHT22;32779;52.264;6.154;2022-11-15T15:20:22;11.60;99.90
47022;DHT22;32779;52.264;6.154;2022-11-15T15:22:48;11.60;99.90
47022;DHT22;32779;52.264;6.154;2022-11-15T15:25:29;11.60;99.90
47022;DHT22;32779;52.264;6.154;2022-11-15T15:27:55;11.60;99.90
47022;DHT22;32779;52.264;6.154;2022-11-15T15:30:27;11.60;99.90
47022;DHT22;32779;52.264;6.154;2022-11-15T15:32:56;11.60;99.90
47022;DHT22;32779;52.264;6.154;2022-11-15T15:35:22;11.60;99.90
47022;DHT22;32779;52.264;6.154;2022-11-15T15:37:48;11.60;99.90
47022;DHT22;32779;52.264;6.154;2022-11-15T15:40:20;11.60;99.90
47022;DHT22;32779;52.264;6.154;2022-11-15T15:42:46;11.60;99.90
47022;DHT22;32779;52.264;6.154;2022-11-15T15:45:13;11.60;99.90
47022;DHT22;32779;52.264;6.154;2022-11-15T15:47:42;11.60;99.90
47022;DHT22;32779;52.264;6.154;2022-11-15T15:52:51;11.60;99.90
47022;DHT22;32779;52.264;6.154;2022-11-15T15:55:16;11.60;99.90
47022;DHT22;32779;52.264;6.154;2022-11-15T15:57:42;11.60;99.90
47022;DHT22;32779;52.264;6.154;2022-11-15T16:00:09;11.60;99.90
47022;DHT22;32779;52.264;6.154;2022-11-15T16:02:35;11.60;99.90
47022;DHT22;32779;52.264;6.154;2022-11-15T16:05:00;11.60;99.90
47022;DHT22;32779;52.264;6.154;2022-11-15T16:07:26;11.60;99.90
47022;DHT22;32779;52.264;6.154;2022-11-15T16:09:53;11.60;99.90
47022;DHT22;32779;52.264;6.154;2022-11-15T16:12:35;11.60;99.90
47022;DHT22;32779;52.264;6.154;2022-11-15T16:15:01;11.60;99.90
47022;DHT22;32779;52.264;6.154;2022-11-15T16:17:32;11.60;99.90
47022;DHT22;32779;52.264;6.154;2022-11-15T16:19:59;11.50;99.90
47022;DHT22;32779;52.264;6.154;2022-11-15T16:22:24;11.50;99.90
47022;DHT22;32779;52.264;6.154;2022-11-15T16:24:50;11.50;99.90
47022;DHT22;32779;52.264;6.154;2022-11-15T16:27:17;11.50;99.90
47022;DHT22;32779;52.264;6.154;2022-11-15T16:29:44;11.50;99.90
47022;DHT22;32779;52.264;6.154;2022-11-15T16:32:10;11.50;99.90
47022;DHT22;32779;52.264;6.154;2022-11-15T16:34:36;11.50;99.90
47022;DHT22;32779;52.264;6.154;2022-11-15T16:37:01;11.60;99.90
47022;DHT22;32779;52.264;6.154;2022-11-15T16:39:27;11.50;99.90
47022;DHT22;32779;52.264;6.154;2022-11-15T16:41:57;11.60;99.90
47022;DHT22;32779;52.264;6.154;2022-11-15T16:44:23;11.70;99.90
47022;DHT22;32779;52.264;6.154;2022-11-15T16:46:49;11.70;99.90
47022;DHT22;32779;52.264;6.154;2022-11-15T16:49:17;11.70;99.90
47022;DHT22;32779;52.264;6.154;2022-11-15T16:51:45;11.70;99.90
47022;DHT22;32779;52.264;6.154;2022-11-15T16:54:11;11.70;99.90
47022;DHT22;32779;52.264;6.154;2022-11-15T16:56:37;11.70;99.90
47022;DHT22;32779;52.264;6.154;2022-11-15T16:59:03;11.70;99.90
47022;DHT22;32779;52.264;6.154;2022-11-15T17:01:30;11.70;99.90
47022;DHT22;32779;52.264;6.154;2022-11-15T17:03:56;11.70;99.90
47022;DHT22;32779;52.264;6.154;2022-11-15T17:06:23;11.70;99.90
47022;DHT22;32779;52.264;6.154;2022-11-15T17:08:49;11.80;99.90
47022;DHT22;32779;52.264;6.154;2022-11-15T17:11:17;11.80;99.90
47022;DHT22;32779;52.264;6.154;2022-11-15T17:13:43;11.90;99.90
47022;DHT22;32779;52.264;6.154;2022-11-15T17:16:11;11.90;99.90
47022;DHT22;32779;52.264;6.154;2022-11-15T17:18:38;11.90;99.90
47022;DHT22;32779;52.264;6.154;2022-11-15T17:21:16;11.90;99.90
47022;DHT22;32779;52.264;6.154;2022-11-15T17:23:42;11.90;99.90
47022;DHT22;32779;52.264;6.154;2022-11-15T17:26:09;12.00;99.90
47022;DHT22;32779;52.264;6.154;2022-11-15T17:28:36;11.90;99.90
47022;DHT22;32779;52.264;6.154;2022-11-15T17:31:06;11.90;99.90
47022;DHT22;32779;52.264;6.154;2022-11-15T17:33:32;12.00;99.90
47022;DHT22;32779;52.264;6.154;2022-11-15T17:35:59;12.00;99.90
47022;DHT22;32779;52.264;6.154;2022-11-15T17:38:25;12.00;99.90
47022;DHT22;32779;52.264;6.154;2022-11-15T17:41:09;12.00;99.90
47022;DHT22;32779;52.264;6.154;2022-11-15T17:43:36;12.00;99.90
47022;DHT22;32779;52.264;6.154;2022-11-15T17:46:07;12.00;99.90